Gerlach, NV (89412)

1:54 AM PDT on September 05, 2015 (GMT -0700)
Alturas Municipal | | Change Station
CLOSE
Current Station
Airport
Location: Alturas,
Elevation: 4373 ft
Nearby Weather Stations

Elev 4373 ft 41.49 °N, 120.56 °W | Updated 59 minutes ago

Partly Cloudy
Partly Cloudy
40 °F
Feels Like 36 °F
N
6
Wind Variable Wind from West

Today
High -- | Low -- °F
--% Chance of Precip.
Yesterday
High -- | Low -- °F
Precip. -- in
6:28 AM 7:25 PM
Waning Gibbous, 50% visible
Pressure 29.98 in
Visibility 10.0 miles
Clouds Mostly Cloudy 4000 ft
Windchill 36 °F
Dew Point 37 °F
Humidity 89%
Rainfall 0.00 in
Snow Depth Not available.
UV 0 out of 12
Pollen 8.30 out of 12
Air Quality Not available.
Flu Activity Not available.
METAR KAAT 050755Z AUTO 27005KT 10SM BKN040 04/03 A3002 RMK AO2 SLP152 T00440028 401501022
Pressure 29.98 in
Visibility 10.0 miles
Clouds Mostly Cloudy 4000 ft
Windchill 36 °F
Dew Point 37 °F
Humidity 89%
Rainfall 0.00 in
Snow Depth Not available.
UV 0 out of 12
Pollen 8.30 out of 12
Air Quality Not available.
Flu Activity Not available.
METAR KAAT 050755Z AUTO 27005KT 10SM BKN040 04/03 A3002 RMK AO2 SLP152 T00440028 401501022

10-Day Weather Forecast

×

Almanac

Astronomy

Sep. 05, 2015 Rise Set
Actual Time
Civil Twilight
Nautical Twilight
Astronomical Twilight
Moon
Length of Visible Light
Length of Day
Tomorrow will be .
, % of the Moon is Illuminated

Today's Extremes

State Highs State Lows

Community

WunderPhotos

Upload Photos

1,852,440 photos uploaded!

WunderBlogs® & News

Nearby

Air Quality

  Air Quality AQ Index Pollutant
Not available.

Snow Depth

Station Depth Elevation

Earthquake Activity

City Distance Mag. Time & Date
Minimum magnitude displayed is 2.5.

Coastal Water Temperatures

Place Temperature

Stations

Nearby Weather Stations

Station Location Temp. Windchill Dew Point Humidity Wind Precip. Elev Updated Type